Terminal Aerodrome Forecast
Issued by NWS Charleston, WV

Current Version | Previous Version | Graphics & Text | Print | Product List | Glossary On
Versions: 1 2 3 4 5 6 7 8 9 10 11 12 13 14 15 16 17 18 19 20 21 22 23 24 25 26 27 28
000
FTUS41 KRLX 141100
TAFBKW
TAF
KBKW 141125Z 1412/1512 17012G18KT P6SM BKN150
     FM142000 19012G18KT P6SM SHRA VCTS OVC040CB
     FM142300 18011G17KT P6SM VCTS OVC030CB
     FM150000 17011G17KT P6SM OVC030
     FM150200 17011G17KT 6SM SHRA VCTS OVC025CB
     FM150300 17011G17KT 5SM SHRA VCTS OVC020CB
     FM150600 18008KT 5SM SHRA VCTS OVC015CB
     FM150800 20010KT P6SM SHRA OVC015
     FM151000 21010G15KT P6SM SHRA VCTS OVC015CB=

USA.gov is the U.S. government's official web portal to all federal, state and local government web resources and services.